Time;durP1;ratioP1;P1;durP2;ratioP2;P2;SDS_P1;SDS_P2;PMS_P1;PMS_P2;Temp;Humidity;BMP_temperature;BMP_pressure;BME280_temperature;BME280_humidity;BME280_pressure;Samples;Min_cycle;Max_cycle;Signal;HPM_P1;HPM_P2
2021/12/10 07:00:07;;;;;;;35.95;4.35;;;8.00;99.90;;;;;;6066226;23;20018;31
2021/12/10 07:02:34;;;;;;;32.17;4.03;;;8.10;99.90;;;;;;4926935;29;20071;-86
2021/12/10 07:05:03;;;;;;;23.98;3.70;;;8.20;99.90;;;;;;4934040;29;20072;-84
2021/12/10 07:07:32;;;;;;;29.40;3.72;;;8.20;99.90;;;;;;4932696;29;20500;-84
2021/12/10 07:10:00;;;;;;;23.75;3.20;;;8.10;99.90;;;;;;4919491;29;20051;-85
2021/12/10 07:12:27;;;;;;;19.45;2.63;;;8.10;99.90;;;;;;4922361;29;20047;-83
2021/12/10 07:14:59;;;;;;;22.67;3.47;;;8.00;99.90;;;;;;4919045;29;20477;-86
2021/12/10 07:17:27;;;;;;;20.73;2.88;;;7.90;99.90;;;;;;4922871;29;20050;-84
2021/12/10 07:19:55;;;;;;;17.33;2.03;;;7.90;99.90;;;;;;4929423;29;20056;-83
2021/12/10 07:22:21;;;;;;;16.13;3.05;;;7.80;99.90;;;;;;4926879;29;20056;-85
2021/12/10 07:24:49;;;;;;;16.08;1.80;;;7.70;99.90;;;;;;4918159;29;20071;-85
2021/12/10 07:27:16;;;;;;;16.67;2.20;;;7.70;99.90;;;;;;4922634;29;20488;-85
2021/12/10 07:29:43;;;;;;;12.80;2.45;;;7.70;99.90;;;;;;4927461;29;20131;-85
2021/12/10 07:32:12;;;;;;;18.75;2.45;;;7.70;99.90;;;;;;4915141;29;20353;-85
2021/12/10 07:34:40;;;;;;;14.88;1.73;;;7.70;99.90;;;;;;4928431;29;20047;-85
2021/12/10 07:37:10;;;;;;;16.70;2.53;;;7.60;99.90;;;;;;4928882;29;20044;-86
2021/12/10 07:39:38;;;;;;;12.38;1.60;;;7.60;99.90;;;;;;4924474;29;20052;-86
2021/12/10 07:42:09;;;;;;;9.65;1.33;;;7.60;99.90;;;;;;4914195;29;20563;-84
2021/12/10 07:44:38;;;;;;;10.40;1.17;;;7.60;99.90;;;;;;4917798;29;20051;-87
2021/12/10 07:47:13;;;;;;;15.57;2.17;;;7.60;99.90;;;;;;4929949;29;20161;-86
2021/12/10 07:49:42;;;;;;;11.88;1.35;;;7.50;99.90;;;;;;4928641;29;20059;-87
2021/12/10 07:52:18;;;;;;;10.48;1.63;;;7.50;99.90;;;;;;4915804;29;20111;-85
2021/12/10 07:54:47;;;;;;;13.23;1.73;;;7.50;99.90;;;;;;4915463;29;20044;-87
2021/12/10 07:57:16;;;;;;;18.20;1.50;;;7.60;99.90;;;;;;4922047;29;20063;-87
2021/12/10 07:59:44;;;;;;;9.50;1.27;;;7.50;99.90;;;;;;4927643;29;20059;-86
2021/12/10 08:02:11;;;;;;;12.60;2.53;;;7.60;99.90;;;;;;4930341;29;20043;-87
2021/12/10 08:04:38;;;;;;;12.93;2.17;;;7.60;99.90;;;;;;4947320;29;20048;-87
2021/12/10 08:07:06;;;;;;;26.63;2.80;;;7.60;99.90;;;;;;4947147;29;20055;-85
2021/12/10 08:09:33;;;;;;;17.15;1.85;;;7.60;99.90;;;;;;4946734;29;20051;-85
2021/12/10 08:12:00;;;;;;;15.13;2.05;;;7.60;99.90;;;;;;4942777;29;20099;-86
2021/12/10 08:14:27;;;;;;;24.13;2.85;;;7.70;99.90;;;;;;4934147;29;20047;-84
2021/12/10 08:16:54;;;;;;;20.08;2.60;;;7.70;99.90;;;;;;4931051;29;20044;-85
2021/12/10 08:19:21;;;;;;;25.17;2.65;;;7.70;99.90;;;;;;4933353;29;20051;-85
2021/12/10 08:21:48;;;;;;;26.55;4.30;;;7.80;99.90;;;;;;4929329;29;20051;-86
2021/12/10 08:24:15;;;;;;;24.13;4.28;;;7.80;99.90;;;;;;4928362;29;20115;-86
2021/12/10 08:26:42;;;;;;;26.70;4.18;;;7.90;99.90;;;;;;4933727;29;20111;-86
2021/12/10 08:29:11;;;;;;;22.50;3.65;;;8.00;99.90;;;;;;4932694;29;20052;-85
2021/12/10 08:31:37;;;;;;;;;;;8.10;99.90;;;;;;4936391;29;20047;-87
2021/12/10 08:34:06;;;;;;;34.90;4.20;;;8.10;99.90;;;;;;4947037;29;19969;-84
2021/12/10 08:36:33;;;;;;;22.60;3.75;;;8.10;99.90;;;;;;4932302;29;20184;-87
2021/12/10 08:39:03;;;;;;;29.73;4.13;;;8.20;99.90;;;;;;4947248;29;20516;-86
2021/12/10 08:41:34;;;;;;;25.40;3.85;;;8.20;99.90;;;;;;4932325;29;20047;-85
2021/12/10 08:44:06;;;;;;;43.00;4.60;;;8.20;99.90;;;;;;4916653;29;20071;-86
2021/12/10 08:46:38;;;;;;;41.75;4.35;;;8.30;99.90;;;;;;4937832;29;20047;-85
2021/12/10 08:49:07;;;;;;;28.02;3.47;;;8.30;99.90;;;;;;4921759;29;20051;-84
2021/12/10 08:51:56;;;;;;;29.98;4.57;;;8.40;99.90;;;;;;4943366;29;20175;-84
2021/12/10 08:54:28;;;;;;;27.88;3.33;;;8.50;99.90;;;;;;4944114;29;20051;-83
2021/12/10 08:56:56;;;;;;;36.20;3.63;;;8.50;99.90;;;;;;4928549;29;20131;-83
2021/12/10 08:59:25;;;;;;;27.38;4.40;;;8.50;99.90;;;;;;4941793;29;20163;-83
2021/12/10 09:01:57;;;;;;;23.27;3.33;;;8.60;99.90;;;;;;4946399;29;20142;-82
2021/12/10 09:04:25;;;;;;;28.80;4.40;;;8.60;99.90;;;;;;4947088;29;20500;-82
2021/12/10 09:06:56;;;;;;;32.70;5.13;;;8.60;99.90;;;;;;4934868;29;20059;-83
2021/12/10 09:09:23;;;;;;;28.90;3.42;;;8.70;99.90;;;;;;4946750;29;20130;-82
2021/12/10 09:11:57;;;;;;;22.42;2.88;;;8.70;99.90;;;;;;4932363;29;20137;-82
2021/12/10 09:14:29;;;;;;;20.45;3.47;;;8.70;99.90;;;;;;4947798;29;21060;-83
2021/12/10 09:16:58;;;;;;;19.85;3.33;;;8.80;99.90;;;;;;4946626;29;20051;-82
2021/12/10 09:19:25;;;;;;;21.45;3.22;;;8.80;99.90;;;;;;4930140;29;20126;-83
2021/12/10 09:21:54;;;;;;;26.63;4.43;;;8.90;99.90;;;;;;4946489;29;20082;-84
2021/12/10 09:24:23;;;;;;;24.05;3.28;;;8.90;99.90;;;;;;4947474;29;20422;-82
2021/12/10 09:26:55;;;;;;;18.85;3.05;;;9.00;99.90;;;;;;4946881;29;20043;-83
2021/12/10 09:29:25;;;;;;;23.25;3.67;;;9.00;99.90;;;;;;4943954;29;20106;-83
2021/12/10 09:31:53;;;;;;;28.60;3.55;;;9.00;99.90;;;;;;4946477;29;20051;-83
2021/12/10 09:34:21;;;;;;;25.20;3.83;;;9.00;99.90;;;;;;4947983;29;20051;-82
2021/12/10 09:36:50;;;;;;;25.90;3.95;;;9.00;99.90;;;;;;4948001;29;20055;-83
2021/12/10 09:39:19;;;;;;;25.15;4.40;;;9.10;99.90;;;;;;4947103;29;20484;-83
2021/12/10 09:41:47;;;;;;;23.77;3.25;;;9.00;99.90;;;;;;4945579;29;20055;-84
2021/12/10 09:44:15;;;;;;;23.88;3.28;;;9.00;99.90;;;;;;4929967;29;20122;-83
2021/12/10 09:46:43;;;;;;;30.98;3.72;;;9.00;99.90;;;;;;4931393;29;20051;-83
2021/12/10 09:49:12;;;;;;;24.23;3.55;;;9.00;99.90;;;;;;4947336;29;20059;-84
2021/12/10 09:51:49;;;;;;;27.13;4.28;;;9.00;99.90;;;;;;4947186;29;20106;-82
2021/12/10 09:54:19;;;;;;;32.03;4.68;;;9.00;99.90;;;;;;4929672;29;20070;-83
2021/12/10 09:56:57;;;;;;;32.75;4.20;;;9.00;99.90;;;;;;4948046;29;20071;-83
2021/12/10 09:59:24;;;;;;;25.13;4.57;;;9.00;99.90;;;;;;4941279;29;20047;-84
2021/12/10 10:01:54;;;;;;;26.98;3.95;;;9.10;99.90;;;;;;4946986;29;20452;-83
2021/12/10 10:04:25;;;;;;;21.58;3.28;;;9.10;99.90;;;;;;4946604;28;20063;-82
2021/12/10 10:06:59;;;;;;;25.10;3.13;;;9.20;99.90;;;;;;4946677;29;20086;-83
2021/12/10 10:09:27;;;;;;;26.77;3.95;;;9.20;99.90;;;;;;4946147;29;20051;-83
2021/12/10 10:12:06;;;;;;;29.15;3.80;;;9.20;99.90;;;;;;4918607;29;20527;-84
2021/12/10 10:14:34;;;;;;;24.92;3.97;;;9.30;99.90;;;;;;4944855;29;20114;-83
2021/12/10 10:17:01;;;;;;;33.42;4.78;;;9.20;99.90;;;;;;4947102;29;20462;-82
2021/12/10 10:19:28;;;;;;;22.13;3.45;;;9.20;99.90;;;;;;4947262;29;20051;-83
2021/12/10 10:21:58;;;;;;;28.75;3.75;;;9.30;99.90;;;;;;4929781;29;20050;-83
2021/12/10 10:24:27;;;;;;;19.10;3.20;;;9.30;99.90;;;;;;4946238;29;20047;-83
2021/12/10 10:27:00;;;;;;;25.38;3.72;;;9.30;99.90;;;;;;4946611;29;20110;-83
2021/12/10 10:29:32;;;;;;;19.27;3.55;;;9.40;99.90;;;;;;4929789;29;20055;-82
2021/12/10 10:32:08;;;;;;;21.50;2.83;;;9.40;99.90;;;;;;4929887;29;20047;-82
2021/12/10 10:34:44;;;;;;;28.77;3.20;;;9.30;99.90;;;;;;4947483;29;20047;-82
2021/12/10 10:37:12;;;;;;;29.05;3.83;;;9.40;99.90;;;;;;4946514;29;20539;-82
2021/12/10 10:39:43;;;;;;;18.40;2.80;;;9.40;99.90;;;;;;4946347;29;20141;-83
2021/12/10 10:42:16;;;;;;;22.42;3.22;;;9.40;99.90;;;;;;4946068;29;20480;-83
2021/12/10 10:44:56;;;;;;;20.17;3.28;;;9.40;99.90;;;;;;4945475;29;20503;-82
2021/12/10 10:47:24;;;;;;;27.38;3.30;;;9.50;99.90;;;;;;4943728;29;20090;-83
2021/12/10 10:49:57;;;;;;;21.40;3.65;;;9.50;99.90;;;;;;4947271;29;20051;-84
2021/12/10 10:52:29;;;;;;;22.33;3.35;;;9.60;99.90;;;;;;4945497;29;20051;-83
2021/12/10 10:55:14;;;;;;;27.60;3.53;;;9.60;99.90;;;;;;4943746;29;20897;-83
2021/12/10 10:57:55;;;;;;;21.27;2.85;;;9.60;99.90;;;;;;4942850;29;20114;-83
2021/12/10 11:00:32;;;;;;;27.10;3.58;;;9.70;99.90;;;;;;4941203;29;20083;-82
2021/12/10 11:03:15;;;;;;;33.35;3.60;;;9.60;99.90;;;;;;4946597;29;20117;-83
2021/12/10 11:05:57;;;;;;;21.50;2.80;;;9.70;99.90;;;;;;4945942;29;20078;-83
2021/12/10 11:08:31;;;;;;;26.65;3.45;;;9.70;99.90;;;;;;4940158;29;20051;-84
2021/12/10 11:11:18;;;;;;;20.17;2.65;;;9.80;99.90;;;;;;4946319;29;20118;-84
2021/12/10 11:13:50;;;;;;;17.70;3.33;;;9.80;99.90;;;;;;4929389;29;20050;-83
2021/12/10 11:16:20;;;;;;;17.15;2.78;;;9.80;99.90;;;;;;4944813;28;20047;-83
2021/12/10 11:19:02;;;;;;;24.20;2.97;;;9.80;99.90;;;;;;4946714;29;20061;-82
2021/12/10 11:21:52;;;;;;;19.75;3.63;;;9.80;99.90;;;;;;4942555;29;20098;-83
2021/12/10 11:24:31;;;;;;;18.88;3.17;;;9.80;99.90;;;;;;4945909;29;20059;-83
2021/12/10 11:27:03;;;;;;;24.55;3.35;;;9.80;99.90;;;;;;4929469;29;20055;-83
2021/12/10 11:29:42;;;;;;;16.70;2.75;;;9.80;99.90;;;;;;4946047;29;20043;-84
2021/12/10 11:32:17;;;;;;;;;;;9.80;99.90;;;;;;4946170;29;20142;-84
2021/12/10 11:34:56;;;;;;;27.30;4.28;;;9.70;99.90;;;;;;4943796;29;20398;-84
2021/12/10 11:37:55;;;;;;;28.85;3.80;;;9.70;99.90;;;;;;4943952;29;20102;-84
2021/12/10 11:40:47;;;;;;;26.95;3.20;;;9.70;99.90;;;;;;4942270;29;20612;-83
2021/12/10 11:48:46;;;;;;;25.10;3.67;;;9.70;99.90;;;;;;4945862;29;20047;-83
2021/12/10 11:51:18;;;;;;;18.17;3.42;;;9.70;99.90;;;;;;4943722;29;20118;-82
2021/12/10 11:54:46;;;;;;;22.77;3.28;;;9.70;99.90;;;;;;4945679;29;20110;-83
2021/12/10 11:57:24;;;;;;;24.70;2.92;;;9.80;99.90;;;;;;4800786;29;20054;-82
2021/12/10 11:59:52;;;;;;;21.85;3.22;;;9.80;99.90;;;;;;4785383;29;20509;-83
2021/12/10 12:02:25;;;;;;;20.50;3.53;;;9.80;99.90;;;;;;4800886;29;20453;-82
2021/12/10 12:04:56;;;;;;;22.05;3.22;;;9.70;99.90;;;;;;4810785;29;20058;-84
2021/12/10 12:07:36;;;;;;;24.00;2.90;;;9.70;99.90;;;;;;4810888;29;20054;-83
2021/12/10 12:10:19;;;;;;;22.45;3.25;;;9.70;99.90;;;;;;4813634;29;20259;-83
2021/12/10 12:16:07;;;;;;;21.73;4.10;;;9.40;99.90;;;;;;4811926;29;20133;-83
2021/12/10 12:18:46;;;;;;;28.17;3.17;;;9.40;99.90;;;;;;4812377;29;20042;-83
2021/12/10 12:27:12;;;;;;;20.80;3.78;;;9.40;99.90;;;;;;4813405;29;20058;-82
2021/12/10 12:30:06;;;;;;;21.42;2.92;;;9.40;99.90;;;;;;4863130;29;20140;-82
2021/12/10 12:32:54;;;;;;;22.35;2.60;;;9.50;99.90;;;;;;4857604;29;20052;-79
2021/12/10 12:35:28;;;;;;;25.05;2.92;;;9.50;99.90;;;;;;4910553;29;20462;-83
2021/12/10 12:38:29;;;;;;;24.45;3.00;;;9.50;99.90;;;;;;4910404;29;20056;-82
2021/12/10 12:41:18;;;;;;;16.08;2.10;;;9.50;99.90;;;;;;4849244;29;20047;-82
2021/12/10 12:44:05;;;;;;;14.32;2.10;;;9.40;99.90;;;;;;4877568;29;20052;-82
2021/12/10 12:47:23;;;;;;;17.33;2.33;;;9.40;99.90;;;;;;4854903;29;20135;-82
2021/12/10 12:49:52;;;;;;;;;;;9.40;99.90;;;;;;4871065;29;20525;-82
2021/12/10 12:52:23;;;;;;;18.17;2.30;;;9.40;99.90;;;;;;4870806;29;20385;-83
2021/12/10 12:55:17;;;;;;;26.15;3.20;;;9.40;99.90;;;;;;4870843;29;20077;-83
2021/12/10 12:57:50;;;;;;;15.95;3.70;;;9.50;99.90;;;;;;4854826;29;20096;-83
2021/12/10 13:00:37;;;;;;;18.92;2.95;;;9.50;99.90;;;;;;4870347;29;20131;-85
2021/12/10 13:03:40;;;;;;;19.65;2.38;;;9.50;99.90;;;;;;4859696;29;20646;-81
2021/12/10 13:06:37;;;;;;;19.83;2.85;;;9.50;99.90;;;;;;4854710;29;20182;-84
2021/12/10 13:09:16;;;;;;;24.88;4.72;;;9.60;99.90;;;;;;4851354;29;20515;-84
2021/12/10 13:12:03;;;;;;;20.47;2.93;;;9.60;99.90;;;;;;4850320;29;20049;-84
2021/12/10 13:14:45;;;;;;;18.63;2.95;;;9.70;99.90;;;;;;4851279;29;20898;-84
2021/12/10 13:17:21;;;;;;;17.75;2.92;;;9.70;99.90;;;;;;4901503;29;20080;-83
2021/12/10 13:19:49;;;;;;;19.50;2.60;;;9.70;99.90;;;;;;4911650;29;20520;-85
2021/12/10 13:22:19;;;;;;;20.70;3.15;;;9.70;99.90;;;;;;4924978;29;20040;-85
2021/12/10 13:24:52;;;;;;;22.23;3.28;;;9.80;99.90;;;;;;4914303;29;20056;-83
2021/12/10 13:27:22;;;;;;;20.35;3.03;;;9.80;99.90;;;;;;4909800;29;20056;-85
2021/12/10 13:30:09;;;;;;;;;;;9.80;99.90;;;;;;4909756;29;20048;-85
2021/12/10 13:32:36;;;;;;;16.52;2.20;;;9.80;99.90;;;;;;4922041;29;19926;-84
2021/12/10 13:35:03;;;;;;;18.67;2.88;;;9.70;99.90;;;;;;4909714;29;20048;-83
2021/12/10 13:37:31;;;;;;;22.63;2.88;;;9.70;99.90;;;;;;4910301;29;20497;-84
2021/12/10 13:40:00;;;;;;;23.27;2.60;;;9.70;99.90;;;;;;4915550;29;20052;-83
2021/12/10 13:42:27;;;;;;;16.85;2.47;;;9.70;99.90;;;;;;4915207;29;20081;-84
2021/12/10 13:44:55;;;;;;;17.38;2.50;;;9.70;99.90;;;;;;4910251;29;20048;-84
2021/12/10 13:47:26;;;;;;;18.95;3.00;;;9.70;99.90;;;;;;4910249;29;20060;-84
2021/12/10 13:49:57;;;;;;;29.75;3.45;;;9.70;99.90;;;;;;4917678;29;20099;-84
2021/12/10 13:52:39;;;;;;;20.67;2.88;;;9.70;99.90;;;;;;4909389;29;20135;-84
2021/12/10 13:55:15;;;;;;;31.73;2.80;;;9.70;99.90;;;;;;4911790;29;20084;-83
2021/12/10 13:57:42;;;;;;;22.13;3.00;;;9.70;99.90;;;;;;4913026;29;20509;-84
2021/12/10 14:00:12;;;;;;;18.95;3.58;;;9.80;99.90;;;;;;4908922;29;20107;-84
2021/12/10 14:02:47;;;;;;;33.92;4.00;;;9.80;99.90;;;;;;4908947;29;20040;-84
2021/12/10 14:05:22;;;;;;;25.13;3.10;;;9.80;99.90;;;;;;4902134;29;20051;-83
2021/12/10 14:07:54;;;;;;;22.02;2.83;;;9.90;99.90;;;;;;4900342;29;20044;-84
2021/12/10 14:10:32;;;;;;;22.67;3.20;;;9.90;99.90;;;;;;4912576;29;20064;-84
2021/12/10 14:13:02;;;;;;;15.85;2.67;;;10.00;99.90;;;;;;4913473;29;20063;-84
2021/12/10 14:15:35;;;;;;;12.57;2.35;;;10.10;99.90;;;;;;4908481;29;20059;-83
2021/12/10 14:18:24;;;;;;;29.83;3.80;;;10.10;99.90;;;;;;4902433;29;20099;-84
2021/12/10 14:21:23;;;;;;;23.90;3.25;;;10.10;99.90;;;;;;4908447;29;20492;-83
2021/12/10 14:24:10;;;;;;;19.58;3.08;;;10.10;99.90;;;;;;4907767;29;20496;-83
2021/12/10 14:27:17;;;;;;;18.70;3.17;;;10.10;99.90;;;;;;4907165;29;20107;-84
2021/12/10 14:30:15;;;;;;;22.75;3.53;;;10.00;99.90;;;;;;4893975;29;20072;-83
2021/12/10 14:33:25;;;;;;;26.27;3.80;;;10.00;99.90;;;;;;4906117;29;20048;-83
2021/12/10 14:35:55;;;;;;;25.45;3.80;;;10.00;99.90;;;;;;4838389;29;20609;-83
2021/12/10 14:39:03;;;;;;;17.38;2.53;;;10.00;99.90;;;;;;4841292;29;20038;-83
2021/12/10 14:41:53;;;;;;;17.65;3.40;;;9.90;99.90;;;;;;4784184;29;20447;-83
2021/12/10 14:44:30;;;;;;;19.02;2.83;;;9.80;99.90;;;;;;4796719;29;20138;-83
2021/12/10 14:47:00;;;;;;;20.30;3.35;;;9.70;99.90;;;;;;4798751;29;20050;-83
2021/12/10 14:49:54;;;;;;;19.73;2.90;;;9.60;99.90;;;;;;4799281;29;20153;-83
2021/12/10 14:52:42;;;;;;;15.48;2.13;;;9.50;99.90;;;;;;4798197;29;20061;-83
2021/12/10 14:55:38;;;;;;;19.05;2.50;;;9.40;99.90;;;;;;4785552;29;20141;-83
2021/12/10 14:58:28;;;;;;;15.77;2.22;;;9.30;99.90;;;;;;4785456;29;20074;-83
2021/12/10 15:01:16;;;;;;;11.35;1.60;;;9.20;99.90;;;;;;4806675;29;20481;-84
2021/12/10 15:04:19;;;;;;;11.93;1.70;;;9.10;99.90;;;;;;4815816;29;20087;-83
2021/12/10 15:07:23;;;;;;;;;;;9.00;99.90;;;;;;4817065;29;20051;-83
2021/12/10 15:10:25;;;;;;;14.02;1.88;;;9.00;99.90;;;;;;4815071;29;20008;-83
2021/12/10 15:13:21;;;;;;;12.00;1.52;;;9.00;99.90;;;;;;4847595;29;20394;-83
2021/12/10 15:16:20;;;;;;;11.57;1.50;;;8.90;99.90;;;;;;4912500;29;20051;-82
2021/12/10 15:19:07;;;;;;;10.20;1.83;;;8.90;99.90;;;;;;4924689;29;20123;-84
2021/12/10 15:21:50;;;;;;;14.50;1.92;;;8.90;99.90;;;;;;4902575;29;20052;-85
2021/12/10 15:24:33;;;;;;;14.02;2.20;;;8.90;99.90;;;;;;4904217;29;20108;-84
2021/12/10 15:27:25;;;;;;;16.80;2.40;;;8.90;99.90;;;;;;4908702;29;20062;-84
2021/12/10 15:30:08;;;;;;;23.60;2.75;;;8.90;99.90;;;;;;4911657;29;20690;-84
2021/12/10 15:32:37;;;;;;;14.25;3.08;;;8.90;99.90;;;;;;4931498;29;21785;-86
2021/12/10 15:35:32;;;;;;;20.52;2.80;;;8.90;99.90;;;;;;4929304;29;20050;-86
2021/12/10 15:38:11;;;;;;;24.88;3.95;;;8.90;99.90;;;;;;4930116;29;20134;-84
2021/12/10 15:40:46;;;;;;;115.03;11.85;;;8.90;99.90;;;;;;4901281;29;20052;-89
2021/12/10 15:43:27;;;;;;;94.88;8.57;;;9.00;99.90;;;;;;4919599;29;20588;-85
2021/12/10 15:46:01;;;;;;;159.45;21.60;;;9.00;99.90;;;;;;4918699;29;20111;-84
2021/12/10 15:48:29;;;;;;;70.82;20.15;;;9.00;99.90;;;;;;4919729;29;20055;-83
2021/12/10 15:50:59;;;;;;;23.05;3.70;;;9.00;99.90;;;;;;4919539;29;20103;-83
2021/12/10 15:53:41;;;;;;;25.40;4.65;;;9.10;99.90;;;;;;4919189;28;20035;-84
2021/12/10 15:56:15;;;;;;;30.58;5.57;;;9.10;99.90;;;;;;4930278;29;20048;-83
2021/12/10 15:58:43;;;;;;;21.83;4.75;;;9.20;99.90;;;;;;4938911;29;20044;-84
2021/12/10 16:01:16;;;;;;;47.83;11.02;;;9.20;99.90;;;;;;4921533;29;20063;-83
2021/12/10 16:03:50;;;;;;;34.17;7.80;;;9.10;99.90;;;;;;4932861;28;20087;-81
2021/12/10 16:06:19;;;;;;;17.15;4.70;;;9.20;99.90;;;;;;4932501;29;20047;-80
2021/12/10 16:08:50;;;;;;;32.67;8.50;;;9.20;99.90;;;;;;4935330;29;20465;-84
2021/12/10 16:11:22;;;;;;;30.02;8.70;;;9.20;99.90;;;;;;4932832;29;20058;-81
2021/12/10 16:13:52;;;;;;;28.85;7.18;;;9.20;99.90;;;;;;4950121;29;20051;-82
2021/12/10 16:16:25;;;;;;;16.65;3.00;;;9.20;99.90;;;;;;4948855;29;20055;-84
2021/12/10 16:19:05;;;;;;;59.40;21.23;;;9.20;99.90;;;;;;4923755;29;20079;-83
2021/12/10 16:21:41;;;;;;;22.98;4.15;;;9.20;99.90;;;;;;4932171;29;20047;-83
2021/12/10 16:24:13;;;;;;;19.92;3.42;;;9.10;99.90;;;;;;4932731;29;20481;-82
2021/12/10 16:26:46;;;;;;;21.85;2.90;;;9.10;99.90;;;;;;4933506;29;20048;-82
2021/12/10 16:29:21;;;;;;;21.15;4.78;;;9.10;99.90;;;;;;4914693;29;20051;-84
2021/12/10 16:31:57;;;;;;;20.58;3.15;;;9.10;99.90;;;;;;4940231;29;20715;-82
2021/12/10 16:34:27;;;;;;;22.95;5.35;;;9.10;99.90;;;;;;4949224;29;20496;-83
2021/12/10 16:37:00;;;;;;;17.88;3.35;;;9.10;99.90;;;;;;4921923;29;20048;-83
2021/12/10 16:39:35;;;;;;;19.92;3.08;;;9.10;99.90;;;;;;4937708;29;20043;-83
2021/12/10 16:42:03;;;;;;;24.80;6.05;;;9.10;99.90;;;;;;4941066;29;20106;-84
2021/12/10 16:44:54;;;;;;;24.30;4.53;;;9.10;99.90;;;;;;4942598;29;20054;-83
2021/12/10 16:47:26;;;;;;;25.38;4.03;;;9.00;99.90;;;;;;4942490;29;20076;-83
2021/12/10 16:49:54;;;;;;;16.80;3.25;;;9.00;99.90;;;;;;4943510;29;20323;-83
2021/12/10 16:52:29;;;;;;;23.27;3.53;;;9.00;99.90;;;;;;4941608;29;20468;-82
2021/12/10 16:55:34;;;;;;;22.35;6.15;;;9.00;99.90;;;;;;4935432;29;20287;-82
2021/12/10 16:58:09;;;;;;;23.55;3.53;;;9.00;99.90;;;;;;4938914;29;20116;-81
2021/12/10 17:00:42;;;;;;;19.67;3.53;;;9.00;99.90;;;;;;4936873;28;20088;-81
2021/12/10 17:03:21;;;;;;;27.55;5.50;;;9.00;99.90;;;;;;4904635;29;20215;-82
2021/12/10 17:05:50;;;;;;;22.15;5.25;;;9.00;99.90;;;;;;4920331;29;20051;-83
2021/12/10 17:08:26;;;;;;;24.20;3.00;;;9.00;99.90;;;;;;4920384;29;20111;-81
2021/12/10 17:10:59;;;;;;;25.55;4.05;;;9.00;99.90;;;;;;4918984;29;20106;-80
2021/12/10 17:13:48;;;;;;;20.13;3.42;;;9.00;99.90;;;;;;4922448;29;20041;-81
2021/12/10 17:16:20;;;;;;;15.55;3.10;;;9.00;99.90;;;;;;4925348;29;20492;-80
2021/12/10 17:18:51;;;;;;;21.30;3.55;;;9.00;99.90;;;;;;4927004;29;20055;-81
2021/12/10 17:21:25;;;;;;;21.88;3.05;;;9.00;99.90;;;;;;4929441;29;20484;-81
2021/12/10 17:24:01;;;;;;;27.13;4.75;;;9.00;99.90;;;;;;4910280;29;20055;-80
2021/12/10 17:26:33;;;;;;;26.85;3.90;;;9.00;99.90;;;;;;4878734;29;20054;-81
2021/12/10 17:29:08;;;;;;;22.33;3.13;;;9.00;99.90;;;;;;4911069;29;20048;-81
2021/12/10 17:31:39;;;;;;;28.52;3.33;;;9.00;99.90;;;;;;4907322;29;20052;-82
2021/12/10 17:34:13;;;;;;;23.98;4.15;;;9.00;99.90;;;;;;4902532;29;20044;-81
2021/12/10 17:36:53;;;;;;;27.65;4.78;;;9.00;99.90;;;;;;4927156;29;20055;-82
2021/12/10 17:39:28;;;;;;;26.83;4.18;;;8.90;99.90;;;;;;4925056;29;20071;-80
2021/12/10 17:41:57;;;;;;;22.52;3.33;;;8.90;99.90;;;;;;4924653;29;20048;-81
2021/12/10 17:44:25;;;;;;;17.73;2.92;;;8.90;99.90;;;;;;4904245;29;20051;-81
2021/12/10 17:46:59;;;;;;;26.63;4.22;;;8.90;99.90;;;;;;4927625;29;20051;-83
2021/12/10 17:49:40;;;;;;;21.23;3.72;;;8.90;99.90;;;;;;4923363;29;20046;-82
2021/12/10 17:52:10;;;;;;;25.10;3.63;;;8.90;99.90;;;;;;4912760;29;20067;-81
2021/12/10 17:54:45;;;;;;;21.83;3.22;;;8.90;99.90;;;;;;4916250;29;20488;-83
2021/12/10 17:57:21;;;;;;;23.38;3.20;;;8.90;99.90;;;;;;4925543;29;20048;-85
2021/12/10 17:59:49;;;;;;;26.88;5.70;;;8.90;99.90;;;;;;4922626;29;20370;-81
2021/12/10 18:02:22;;;;;;;19.50;3.00;;;8.90;99.90;;;;;;4939045;29;20055;-82
2021/12/10 18:04:54;;;;;;;22.17;4.05;;;8.90;99.90;;;;;;4943962;29;20047;-83
2021/12/10 18:07:23;;;;;;;23.92;4.10;;;8.90;99.90;;;;;;4946948;29;20070;-83
2021/12/10 18:09:57;;;;;;;20.98;3.00;;;9.00;99.90;;;;;;4927369;29;20085;-81
2021/12/10 18:12:30;;;;;;;19.73;3.92;;;9.00;99.90;;;;;;4937239;29;20077;-81
2021/12/10 18:15:03;;;;;;;23.65;3.10;;;9.00;99.90;;;;;;4946400;29;20055;-82
2021/12/10 18:17:38;;;;;;;23.58;3.67;;;9.00;99.90;;;;;;4934979;29;20417;-82
2021/12/10 18:20:20;;;;;;;16.05;2.75;;;9.00;99.90;;;;;;4946292;29;20453;-81
2021/12/10 18:22:54;;;;;;;26.33;3.22;;;9.00;99.90;;;;;;4943714;29;20051;-80
2021/12/10 18:25:25;;;;;;;25.27;3.35;;;9.00;99.90;;;;;;4943219;29;20051;-80
2021/12/10 18:27:56;;;;;;;14.85;2.97;;;9.00;99.90;;;;;;4942970;29;20142;-81
2021/12/10 18:30:28;;;;;;;27.55;4.43;;;9.00;99.90;;;;;;4919509;29;20472;-81
2021/12/10 18:32:56;;;;;;;28.58;5.53;;;9.10;99.90;;;;;;4934424;29;20058;-81
2021/12/10 18:35:29;;;;;;;26.05;5.68;;;9.10;99.90;;;;;;4944217;29;20138;-81
2021/12/10 18:38:01;;;;;;;26.15;7.15;;;9.10;99.90;;;;;;4946473;29;20102;-82
2021/12/10 18:40:38;;;;;;;26.00;4.88;;;9.10;99.90;;;;;;4943548;29;20566;-81
2021/12/10 18:43:09;;;;;;;26.83;4.72;;;9.10;99.90;;;;;;4908975;29;20058;-79
2021/12/10 18:45:44;;;;;;;23.17;3.72;;;9.10;99.90;;;;;;4940277;29;20102;-81
2021/12/10 18:48:18;;;;;;;30.55;10.13;;;9.10;99.90;;;;;;4937297;29;20146;-81
2021/12/10 18:50:49;;;;;;;39.67;10.98;;;9.10;99.90;;;;;;4945382;29;20047;-82
2021/12/10 18:53:20;;;;;;;30.60;5.15;;;9.10;99.90;;;;;;4938324;29;20047;-82
2021/12/10 18:55:52;;;;;;;27.10;4.55;;;9.20;99.90;;;;;;4932589;29;20475;-81
2021/12/10 18:58:23;;;;;;;25.98;6.90;;;9.20;99.90;;;;;;4940452;29;20047;-80
2021/12/10 19:01:13;;;;;;;29.95;4.15;;;9.20;99.90;;;;;;4939931;29;20066;-82
2021/12/10 19:03:50;;;;;;;20.50;3.83;;;9.20;99.90;;;;;;4928882;29;20535;-81
2021/12/10 19:06:23;;;;;;;26.27;4.22;;;9.20;99.90;;;;;;4945400;29;20043;-81
2021/12/10 19:09:14;;;;;;;25.98;3.95;;;9.20;99.90;;;;;;4944289;29;20047;-81
2021/12/10 19:11:48;;;;;;;30.48;5.50;;;9.20;99.90;;;;;;4945636;29;20539;-82
2021/12/10 19:14:24;;;;;;;23.02;4.20;;;9.20;99.90;;;;;;4941018;29;20130;-81
2021/12/10 19:17:06;;;;;;;25.27;4.13;;;9.20;99.90;;;;;;4916002;29;20052;-81
2021/12/10 19:19:40;;;;;;;32.97;4.55;;;9.20;99.90;;;;;;4945746;29;20043;-81
2021/12/10 19:22:17;;;;;;;21.40;3.08;;;9.20;99.90;;;;;;4944152;29;20484;-81
2021/12/10 19:25:05;;;;;;;29.00;3.85;;;9.20;99.90;;;;;;4945456;29;20102;-81
2021/12/10 19:27:37;;;;;;;18.83;3.67;;;9.20;99.90;;;;;;4916552;29;20047;-80
2021/12/10 19:30:20;;;;;;;29.13;5.15;;;9.20;99.90;;;;;;4932156;29;20060;-81
2021/12/10 19:32:51;;;;;;;18.20;3.15;;;9.20;99.90;;;;;;4928493;29;20393;-80
2021/12/10 19:35:32;;;;;;;20.58;3.15;;;9.20;99.90;;;;;;4927253;29;20094;-80
2021/12/10 19:38:16;;;;;;;24.77;3.20;;;9.20;99.90;;;;;;4942239;28;20067;-81
2021/12/10 19:40:58;;;;;;;14.13;2.85;;;9.20;99.90;;;;;;4942484;29;20043;-81
2021/12/10 19:43:27;;;;;;;16.55;4.38;;;9.20;99.90;;;;;;4944912;29;20468;-80
2021/12/10 19:46:12;;;;;;;23.23;3.38;;;9.20;99.90;;;;;;4943212;29;20047;-81
2021/12/10 19:48:51;;;;;;;22.75;6.05;;;9.20;99.90;;;;;;4944920;29;20071;-81
2021/12/10 19:51:43;;;;;;;23.77;8.85;;;9.20;99.90;;;;;;4942752;29;20047;-81
2021/12/10 19:54:27;;;;;;;26.35;5.55;;;9.20;99.90;;;;;;4929704;28;20059;-81
2021/12/10 19:57:03;;;;;;;24.58;3.70;;;9.20;99.90;;;;;;4936751;28;20436;-81
2021/12/10 19:59:33;;;;;;;21.70;4.43;;;9.20;99.90;;;;;;4936920;28;20117;-81
2021/12/10 20:02:15;;;;;;;19.77;4.78;;;9.20;99.90;;;;;;4938324;28;20505;-80
2021/12/10 20:04:48;;;;;;;25.60;6.70;;;9.20;99.90;;;;;;4940830;29;20055;-81
2021/12/10 20:07:16;;;;;;;21.48;3.80;;;9.20;99.90;;;;;;4943915;29;20062;-81
2021/12/10 20:09:59;;;;;;;24.88;3.78;;;9.20;99.90;;;;;;4943914;28;20511;-81
2021/12/10 20:12:34;;;;;;;22.23;3.67;;;9.20;99.90;;;;;;4943382;29;20119;-81
2021/12/10 20:15:23;;;;;;;26.67;3.88;;;9.20;99.90;;;;;;4945435;29;20550;-81
2021/12/10 20:18:05;;;;;;;22.23;2.83;;;9.20;99.90;;;;;;4941048;29;20516;-82
2021/12/10 20:20:45;;;;;;;17.83;2.90;;;9.20;99.90;;;;;;4942461;29;20623;-82
2021/12/10 20:23:17;;;;;;;19.48;3.60;;;9.20;99.90;;;;;;4942293;29;20524;-81
2021/12/10 20:25:51;;;;;;;21.67;3.00;;;9.20;99.90;;;;;;4925433;29;20552;-81
2021/12/10 20:28:29;;;;;;;17.73;3.15;;;9.20;99.90;;;;;;4937267;29;20051;-81
2021/12/10 20:31:15;;;;;;;26.58;3.33;;;9.20;99.90;;;;;;4940872;29;20063;-81
2021/12/10 20:33:47;;;;;;;22.13;4.25;;;9.20;99.90;;;;;;4941832;29;20151;-80
2021/12/10 20:36:35;;;;;;;26.42;2.88;;;9.20;99.90;;;;;;4940511;29;20062;-81
2021/12/10 20:39:16;;;;;;;16.95;2.33;;;9.20;99.90;;;;;;4939118;29;20051;-80
2021/12/10 20:41:49;;;;;;;26.40;2.95;;;9.20;99.90;;;;;;4941473;29;20172;-81
2021/12/10 20:44:26;;;;;;;20.85;3.55;;;9.20;99.90;;;;;;4938724;29;20047;-82
2021/12/10 20:47:06;;;;;;;26.05;3.60;;;9.20;99.90;;;;;;4938296;28;20044;-82